createdAt,value
2019-04-29T00:00:55.193Z,99.99
2019-04-29T00:03:55.449Z,99.99
2019-04-29T00:06:55.610Z,99.99
2019-04-29T00:09:55.843Z,99.99
2019-04-29T00:12:56.058Z,99.99
2019-04-29T00:15:56.272Z,99.99
2019-04-29T00:18:56.512Z,99.99
2019-04-29T00:21:56.722Z,99.99
2019-04-29T00:24:56.941Z,99.99
2019-04-29T00:27:57.153Z,99.99
2019-04-29T00:30:57.385Z,99.99
2019-04-29T00:33:57.593Z,99.99
2019-04-29T00:36:57.820Z,99.99
2019-04-29T00:39:58.082Z,99.99
2019-04-29T00:42:58.327Z,99.99
2019-04-29T00:45:58.578Z,99.99
2019-04-29T00:48:58.794Z,99.99
2019-04-29T00:51:59.053Z,99.99
2019-04-29T00:54:59.300Z,99.99
2019-04-29T00:57:59.553Z,99.99
2019-04-29T01:00:59.804Z,99.99
2019-04-29T01:04:00.066Z,99.99
2019-04-29T01:07:00.327Z,99.99
2019-04-29T01:10:00.556Z,99.99
2019-04-29T01:13:00.866Z,99.99
2019-04-29T01:16:01.127Z,99.99
2019-04-29T01:19:03.906Z,99.99
2019-04-29T01:22:01.685Z,99.99
2019-04-29T01:25:02.009Z,99.99
2019-04-29T01:28:02.260Z,99.99
2019-04-29T01:31:02.574Z,99.99
2019-04-29T01:34:02.851Z,99.99
2019-04-29T01:37:03.175Z,99.99
2019-04-29T01:40:03.470Z,99.99
2019-04-29T01:43:03.782Z,99.99
2019-04-29T01:46:04.072Z,99.99
2019-04-29T01:49:04.363Z,99.99
2019-04-29T01:52:04.631Z,99.99
2019-04-29T01:55:04.895Z,99.99
2019-04-29T01:58:05.135Z,99.99
2019-04-29T02:01:05.423Z,99.99
2019-04-29T02:04:05.717Z,99.99
2019-04-29T02:07:05.956Z,99.99
2019-04-29T02:10:06.223Z,99.99
2019-04-29T02:13:06.478Z,99.99
2019-04-29T02:16:06.763Z,99.99
2019-04-29T02:19:07.038Z,99.99
2019-04-29T02:22:07.324Z,99.99
2019-04-29T02:25:07.633Z,99.99
2019-04-29T02:28:07.899Z,99.99
2019-04-29T02:31:08.193Z,99.99
2019-04-29T02:34:15.639Z,99.99
2019-04-29T02:37:08.762Z,99.99
2019-04-29T02:40:09.078Z,99.99
2019-04-29T02:43:09.368Z,99.99
2019-04-29T02:46:09.702Z,99.99
2019-04-29T02:49:09.991Z,99.99
2019-04-29T02:52:10.340Z,99.99
2019-04-29T02:55:10.626Z,99.99
2019-04-29T02:58:12.631Z,99.99
2019-04-29T03:01:11.230Z,99.99
2019-04-29T03:04:11.535Z,99.99
2019-04-29T03:07:11.853Z,99.99
2019-04-29T03:10:12.154Z,99.99
2019-04-29T03:13:12.495Z,99.99
2019-04-29T03:16:12.751Z,99.99
2019-04-29T03:19:13.078Z,99.99
2019-04-29T03:22:13.371Z,99.99
2019-04-29T03:25:13.667Z,99.99
2019-04-29T03:28:13.946Z,99.99
2019-04-29T03:31:14.232Z,99.99
2019-04-29T03:34:14.595Z,99.99
2019-04-29T03:37:14.860Z,99.99
2019-04-29T03:40:15.200Z,99.99
2019-04-29T03:43:15.466Z,99.99
2019-04-29T03:46:15.777Z,99.99
2019-04-29T03:49:16.077Z,99.99
2019-04-29T03:52:16.363Z,99.99
2019-04-29T03:55:16.681Z,99.99
2019-04-29T03:58:16.960Z,99.99
2019-04-29T04:01:17.395Z,99.99
2019-04-29T04:04:17.595Z,99.99
2019-04-29T04:07:17.896Z,99.99
2019-04-29T04:10:18.195Z,99.99
2019-04-29T04:13:18.480Z,99.99
2019-04-29T04:16:18.758Z,99.99
2019-04-29T04:19:19.028Z,99.99
2019-04-29T04:22:19.323Z,99.99
2019-04-29T04:25:19.642Z,99.99
2019-04-29T04:28:19.959Z,99.99
2019-04-29T04:31:20.256Z,99.99
2019-04-29T04:34:20.539Z,99.99
2019-04-29T04:37:20.848Z,99.99
2019-04-29T04:40:21.141Z,99.99
2019-04-29T04:43:21.461Z,99.99
2019-04-29T04:46:21.748Z,99.99
2019-04-29T04:49:22.069Z,99.99
2019-04-29T04:52:22.324Z,99.99
2019-04-29T04:55:22.617Z,99.22
2019-04-29T04:58:22.887Z,98.45
2019-04-29T05:01:23.170Z,97.93
2019-04-29T05:04:23.435Z,98.20
2019-04-29T05:07:23.679Z,97.33
2019-04-29T05:10:23.929Z,96.81
2019-04-29T05:13:28.367Z,96.19
2019-04-29T05:16:24.421Z,95.89
2019-04-29T05:19:24.674Z,94.18
2019-04-29T05:22:24.883Z,93.93
2019-04-29T05:25:25.115Z,94.04
2019-04-29T05:28:25.318Z,93.06
2019-04-29T05:31:25.553Z,93.74
2019-04-29T05:34:25.733Z,93.16
2019-04-29T05:37:25.927Z,92.77
2019-04-29T05:40:26.093Z,90.41
2019-04-29T05:43:27.082Z,89.69
2019-04-29T05:46:27.388Z,90.20
2019-04-29T05:49:26.522Z,89.44
2019-04-29T05:52:29.850Z,88.98
2019-04-29T05:55:26.783Z,88.98
2019-04-29T05:58:26.915Z,87.26
2019-04-29T06:01:34.101Z,87.56
2019-04-29T06:04:34.252Z,88.82
2019-04-29T06:07:34.442Z,91.75
2019-04-29T06:10:27.548Z,90.78
2019-04-29T06:13:27.701Z,91.83
2019-04-29T06:16:27.797Z,89.29
2019-04-29T06:19:27.901Z,91.49
2019-04-29T06:22:37.943Z,92.52
2019-04-29T06:25:29.096Z,94.12
2019-04-29T06:28:28.297Z,93.68
2019-04-29T06:31:28.260Z,91.44
2019-04-29T06:34:28.343Z,83.76
2019-04-29T06:37:28.395Z,82.39
2019-04-29T06:40:30.616Z,82.82
2019-04-29T06:43:30.712Z,81.55
2019-04-29T06:46:28.447Z,79.70
2019-04-29T06:49:28.477Z,77.12
2019-04-29T06:52:28.429Z,69.93
2019-04-29T06:55:28.362Z,67.51
2019-04-29T06:58:28.277Z,67.60
2019-04-29T07:01:28.171Z,65.31
2019-04-29T07:04:30.753Z,67.79
2019-04-29T07:07:28.874Z,67.32
2019-04-29T07:10:27.704Z,73.20
2019-04-29T07:13:27.520Z,70.71
2019-04-29T07:16:31.632Z,71.77
2019-04-29T07:19:28.347Z,73.50
2019-04-29T07:22:27.545Z,73.06
2019-04-29T07:25:28.886Z,70.34
2019-04-29T07:28:26.617Z,69.52
2019-04-29T07:31:28.266Z,68.13
2019-04-29T07:34:28.891Z,64.57
2019-04-29T07:37:29.744Z,65.05
2019-04-29T07:40:26.546Z,62.20
2019-04-29T07:43:25.228Z,65.14
2019-04-29T07:46:24.880Z,64.56
2019-04-29T07:49:24.477Z,60.58
2019-04-29T07:52:24.089Z,57.88
2019-04-29T07:55:25.906Z,57.09
2019-04-29T07:58:27.358Z,61.97
2019-04-29T08:01:24.604Z,55.34
2019-04-29T08:04:22.328Z,57.52
2019-04-29T08:07:21.844Z,59.16
2019-04-29T08:10:23.532Z,52.84
2019-04-29T08:13:20.837Z,53.27
2019-04-29T08:16:20.254Z,49.73
2019-04-29T08:19:19.662Z,47.09
2019-04-29T08:22:22.790Z,51.06
2019-04-29T08:25:21.708Z,55.69
2019-04-29T08:28:18.729Z,55.80
2019-04-29T08:31:21.073Z,55.19
2019-04-29T08:34:18.802Z,54.41
2019-04-29T08:37:16.911Z,58.26
2019-04-29T08:40:16.696Z,61.07
2019-04-29T08:43:15.901Z,58.85
2019-04-29T08:46:15.245Z,61.66
2019-04-29T08:49:14.780Z,59.03
2019-04-29T08:52:13.241Z,61.01
2019-04-29T08:55:12.737Z,58.07
2019-04-29T08:58:12.914Z,56.70
2019-04-29T09:01:11.768Z,57.74
2019-04-29T09:04:11.293Z,56.57
2019-04-29T09:07:12.639Z,57.67
2019-04-29T09:10:10.340Z,58.15
2019-04-29T09:13:09.915Z,59.74
2019-04-29T09:16:09.447Z,58.36
2019-04-29T09:19:08.998Z,61.07
2019-04-29T09:22:08.574Z,60.27
2019-04-29T09:25:08.179Z,60.74
2019-04-29T09:28:07.748Z,59.95
2019-04-29T09:31:07.338Z,60.50
2019-04-29T09:34:07.134Z,59.21
2019-04-29T09:37:06.506Z,57.56
2019-04-29T09:40:06.113Z,60.30
2019-04-29T09:43:15.177Z,59.36
2019-04-29T09:46:06.311Z,59.08
2019-04-29T09:49:04.905Z,56.91
2019-04-29T09:52:04.469Z,56.86
2019-04-29T09:55:05.762Z,58.99
2019-04-29T09:58:03.630Z,58.71
2019-04-29T10:01:03.221Z,54.58
2019-04-29T10:04:02.776Z,53.07
2019-04-29T10:07:02.326Z,52.31
2019-04-29T10:10:06.165Z,50.58
2019-04-29T10:13:01.335Z,50.10
2019-04-29T10:16:02.158Z,51.13
2019-04-29T10:19:00.763Z,49.15
2019-04-29T10:21:59.734Z,49.60
2019-04-29T10:24:59.167Z,46.19
2019-04-29T10:27:58.614Z,45.12
2019-04-29T10:30:58.000Z,48.03
2019-04-29T10:33:57.390Z,44.08
2019-04-29T10:36:56.748Z,44.04
2019-04-29T10:39:56.015Z,41.24
2019-04-29T10:42:55.311Z,43.82
2019-04-29T10:45:54.571Z,44.04
2019-04-29T10:48:53.876Z,44.99
2019-04-29T10:51:53.128Z,41.39
2019-04-29T10:54:55.336Z,39.02
2019-04-29T10:57:51.605Z,40.83
2019-04-29T11:00:52.789Z,41.51
2019-04-29T11:03:51.075Z,40.88
2019-04-29T11:06:49.302Z,41.15
2019-04-29T11:09:50.776Z,42.60
2019-04-29T11:12:47.799Z,41.02
2019-04-29T11:15:49.451Z,40.52
2019-04-29T11:18:46.201Z,38.74
2019-04-29T11:21:45.461Z,40.52
2019-04-29T11:24:44.679Z,43.70
2019-04-29T11:27:43.950Z,45.13
2019-04-29T11:30:43.219Z,47.86
2019-04-29T11:33:42.537Z,49.39
2019-04-29T11:36:44.209Z,49.19
2019-04-29T11:39:41.231Z,53.75
2019-04-29T11:42:41.789Z,52.26
2019-04-29T11:45:40.399Z,51.10
2019-04-29T11:48:39.399Z,52.48
2019-04-29T11:51:57.056Z,52.31
2019-04-29T11:54:39.276Z,53.50
2019-04-29T11:57:41.000Z,53.12
2019-04-29T12:00:37.230Z,54.79
2019-04-29T12:03:37.502Z,55.93
2019-04-29T12:06:36.174Z,57.65
2019-04-29T12:09:35.690Z,58.85
2019-04-29T12:12:35.211Z,63.85
2019-04-29T12:15:34.765Z,63.81
2019-04-29T12:18:38.091Z,63.84
2019-04-29T12:21:34.932Z,63.71
2019-04-29T12:24:40.562Z,65.54
2019-04-29T12:27:33.192Z,66.08
2019-04-29T12:30:34.602Z,71.16
2019-04-29T12:33:36.728Z,72.99
2019-04-29T12:36:36.769Z,78.46
2019-04-29T12:39:42.741Z,77.34
2019-04-29T12:42:35.716Z,77.44
2019-04-29T12:45:32.209Z,75.07
2019-04-29T12:48:30.943Z,76.70
2019-04-29T12:51:30.686Z,78.12
2019-04-29T12:54:30.515Z,78.64
2019-04-29T12:57:30.172Z,77.96
2019-04-29T13:00:29.926Z,77.34
2019-04-29T13:03:31.029Z,76.50
2019-04-29T13:06:39.100Z,77.48
2019-04-29T13:09:30.169Z,76.66
2019-04-29T13:12:30.414Z,75.51
2019-04-29T13:15:28.680Z,78.19
2019-04-29T13:18:28.443Z,77.78
2019-04-29T13:21:28.236Z,81.04
2019-04-29T13:24:28.261Z,78.53
2019-04-29T13:27:27.769Z,78.49
2019-04-29T13:30:27.521Z,78.39
2019-04-29T13:33:27.258Z,78.69
2019-04-29T13:36:27.424Z,78.42
2019-04-29T13:39:39.130Z,80.50
2019-04-29T13:42:27.493Z,80.91
2019-04-29T13:45:26.488Z,80.40
2019-04-29T13:48:25.970Z,82.41
2019-04-29T13:51:35.249Z,83.63
2019-04-29T13:54:26.484Z,84.12
2019-04-29T13:57:25.236Z,87.18
2019-04-29T14:00:26.304Z,89.49
2019-04-29T14:03:24.904Z,89.02
2019-04-29T14:06:24.614Z,89.32
2019-04-29T14:09:24.423Z,89.73
2019-04-29T14:12:47.975Z,90.45
2019-04-29T14:15:25.090Z,90.96
2019-04-29T14:18:23.875Z,92.23
2019-04-29T14:21:25.653Z,90.64
2019-04-29T14:24:24.549Z,92.01
2019-04-29T14:27:24.984Z,93.44
2019-04-29T14:30:37.320Z,94.06
2019-04-29T14:33:25.792Z,93.99
2019-04-29T14:36:24.744Z,93.59
2019-04-29T14:39:36.626Z,95.73
2019-04-29T14:42:25.635Z,95.43
2019-04-29T14:45:23.503Z,94.60
2019-04-29T14:48:22.363Z,95.63
2019-04-29T14:51:22.251Z,95.38
2019-04-29T14:54:22.125Z,94.15
2019-04-29T14:57:21.978Z,95.13
2019-04-29T15:00:21.937Z,94.42
2019-04-29T15:03:21.773Z,93.86
2019-04-29T15:06:21.623Z,94.27
2019-04-29T15:09:21.460Z,94.48
2019-04-29T15:12:23.629Z,94.07
2019-04-29T15:15:21.079Z,94.17
2019-04-29T15:18:38.693Z,94.98
2019-04-29T15:21:32.219Z,94.21
2019-04-29T15:24:21.595Z,93.95
2019-04-29T15:27:20.471Z,95.07
2019-04-29T15:30:20.350Z,94.46
2019-04-29T15:33:20.189Z,94.87
2019-04-29T15:36:20.095Z,95.89
2019-04-29T15:39:20.226Z,94.81
2019-04-29T15:42:19.806Z,95.69
2019-04-29T15:45:19.649Z,95.73
2019-04-29T15:48:19.502Z,94.60
2019-04-29T15:51:19.361Z,94.06
2019-04-29T15:54:19.213Z,94.20
2019-04-29T15:57:19.076Z,94.15
2019-04-29T16:00:22.180Z,94.06
2019-04-29T16:03:20.359Z,92.83
2019-04-29T16:06:21.373Z,93.33
2019-04-29T16:09:18.507Z,92.99
2019-04-29T16:12:18.372Z,92.78
2019-04-29T16:15:18.219Z,91.86
2019-04-29T16:18:18.084Z,90.94
2019-04-29T16:21:17.952Z,90.64
2019-04-29T16:24:26.266Z,90.68
2019-04-29T16:27:18.648Z,90.37
2019-04-29T16:30:18.919Z,90.37
2019-04-29T16:33:17.397Z,90.68
2019-04-29T16:36:17.230Z,89.86
2019-04-29T16:39:17.117Z,89.86
2019-04-29T16:42:17.003Z,90.31
2019-04-29T16:45:16.921Z,90.58
2019-04-29T16:48:16.779Z,90.92
2019-04-29T16:51:16.904Z,89.59
2019-04-29T16:54:20.384Z,89.29
2019-04-29T16:57:17.409Z,90.11
2019-04-29T17:00:16.318Z,89.59
2019-04-29T17:03:16.209Z,90.62
2019-04-29T17:06:16.120Z,90.56
2019-04-29T17:09:22.820Z,90.56
2019-04-29T17:12:16.935Z,90.62
2019-04-29T17:15:24.691Z,90.66
2019-04-29T17:18:16.699Z,90.56
2019-04-29T17:21:22.660Z,90.56
2019-04-29T17:24:22.641Z,90.56
2019-04-29T17:27:22.592Z,89.53
2019-04-29T17:30:22.594Z,89.64
2019-04-29T17:33:25.870Z,89.47
2019-04-29T17:36:23.007Z,90.81
2019-04-29T17:39:16.418Z,91.01
2019-04-29T17:42:15.362Z,90.91
2019-04-29T17:45:30.719Z,91.73
2019-04-29T17:48:18.357Z,90.70
2019-04-29T17:51:15.202Z,91.31
2019-04-29T17:54:15.894Z,90.30
2019-04-29T17:57:27.837Z,90.30
2019-04-29T18:00:15.945Z,90.70
2019-04-29T18:03:15.297Z,90.70
2019-04-29T18:06:17.251Z,91.26
2019-04-29T18:09:15.867Z,90.70
2019-04-29T18:12:14.931Z,90.70
2019-04-29T18:15:17.718Z,90.64
2019-04-29T18:18:17.368Z,91.16
2019-04-29T18:21:14.938Z,90.84
2019-04-29T18:24:15.334Z,91.97
2019-04-29T18:27:15.317Z,91.67
2019-04-29T18:30:18.099Z,92.94
2019-04-29T18:33:18.963Z,93.04
2019-04-29T18:36:23.739Z,94.37
2019-04-29T18:39:15.939Z,93.35
2019-04-29T18:42:15.817Z,93.55
2019-04-29T18:45:15.579Z,94.32
2019-04-29T18:48:16.971Z,93.66
2019-04-29T18:51:15.397Z,94.32
2019-04-29T18:54:13.775Z,94.01
2019-04-29T18:57:26.850Z,93.80
2019-04-29T19:00:19.386Z,92.78
2019-04-29T19:03:14.899Z,93.80
2019-04-29T19:06:15.124Z,93.70
2019-04-29T19:09:18.508Z,94.62
2019-04-29T19:12:14.564Z,93.08
2019-04-29T19:15:15.447Z,94.21
2019-04-29T19:18:17.469Z,94.42
2019-04-29T19:21:15.472Z,93.55
2019-04-29T19:24:13.376Z,92.98
2019-04-29T19:27:15.020Z,93.35
2019-04-29T19:30:16.049Z,93.15
2019-04-29T19:33:15.153Z,93.39
2019-04-29T19:36:17.602Z,94.07
2019-04-29T19:39:17.052Z,93.29
2019-04-29T19:42:15.625Z,94.68
2019-04-29T19:45:15.476Z,94.58
2019-04-29T19:48:12.975Z,93.76
2019-04-29T19:51:17.885Z,94.58
2019-04-29T19:54:16.996Z,93.66
2019-04-29T19:57:14.942Z,93.96
2019-04-29T20:00:13.385Z,94.17
2019-04-29T20:03:22.821Z,94.58
2019-04-29T20:06:21.105Z,94.07
2019-04-29T20:09:18.294Z,94.27
2019-04-29T20:12:16.834Z,94.17
2019-04-29T20:15:12.640Z,93.96
2019-04-29T20:18:12.786Z,94.07
2019-04-29T20:23:27.470Z,94.58
2019-04-29T20:24:15.505Z,94.58
2019-04-29T20:27:12.381Z,94.37
2019-04-29T20:30:17.553Z,94.68
2019-04-29T20:33:13.272Z,94.83
2019-04-29T20:36:12.273Z,94.27
2019-04-29T20:39:16.270Z,93.60
2019-04-29T20:42:13.204Z,94.17
2019-04-29T20:45:12.216Z,93.55
2019-04-29T20:48:16.210Z,93.66
2019-04-29T20:51:14.116Z,93.15
2019-04-29T20:54:15.895Z,93.15
2019-04-29T20:57:20.388Z,93.04
2019-04-29T21:00:12.962Z,93.55
2019-04-29T21:03:11.913Z,93.04
2019-04-29T21:06:11.664Z,93.66
2019-04-29T21:09:11.658Z,93.66
2019-04-29T21:12:11.564Z,94.42
2019-04-29T21:15:14.998Z,93.76
2019-04-29T21:18:14.627Z,94.07
2019-04-29T21:21:11.382Z,94.62
2019-04-29T21:24:14.144Z,94.62
2019-04-29T21:27:15.965Z,94.78
2019-04-29T21:30:12.188Z,94.37
2019-04-29T21:33:17.850Z,94.52
2019-04-29T21:36:12.086Z,94.83
2019-04-29T21:39:11.071Z,94.89
2019-04-29T21:42:11.017Z,96.01
2019-04-29T21:45:10.955Z,95.61
2019-04-29T21:48:10.886Z,95.24
2019-04-29T21:51:12.353Z,96.26
2019-04-29T21:54:14.097Z,95.34
2019-04-29T21:57:10.745Z,95.34
2019-04-29T22:00:10.677Z,96.22
2019-04-29T22:03:10.649Z,95.65
2019-04-29T22:06:10.570Z,96.16
2019-04-29T22:09:10.540Z,96.47
2019-04-29T22:12:14.197Z,96.78
2019-04-29T22:15:11.400Z,96.98
2019-04-29T22:18:13.937Z,96.88
2019-04-29T22:21:15.031Z,96.88
2019-04-29T22:24:11.198Z,97.19
2019-04-29T22:27:10.143Z,96.78
2019-04-29T22:30:14.192Z,97.08
2019-04-29T22:33:11.012Z,96.78
2019-04-29T22:36:13.809Z,97.34
2019-04-29T22:39:09.904Z,97.08
2019-04-29T22:42:09.784Z,97.80
2019-04-29T22:45:09.739Z,98.25
2019-04-29T22:48:14.783Z,98.05
2019-04-29T22:51:15.102Z,98.61
2019-04-29T22:54:10.513Z,98.61
2019-04-29T22:57:09.470Z,99.22
2019-04-29T23:00:09.387Z,99.38
2019-04-29T23:03:09.352Z,99.21
2019-04-29T23:06:09.331Z,99.38
2019-04-29T23:09:12.069Z,99.83
2019-04-29T23:12:09.687Z,99.99
2019-04-29T23:15:09.144Z,99.99
2019-04-29T23:18:09.111Z,99.99
2019-04-29T23:21:09.050Z,99.99
2019-04-29T23:24:13.408Z,99.99
2019-04-29T23:27:11.619Z,99.99
2019-04-29T23:30:13.591Z,99.99
2019-04-29T23:33:09.852Z,99.99
2019-04-29T23:36:09.673Z,99.99
2019-04-29T23:39:08.743Z,99.99
2019-04-29T23:42:12.289Z,99.99
2019-04-29T23:45:08.649Z,99.99
2019-04-29T23:48:19.833Z,99.48
2019-04-29T23:51:09.631Z,99.63
2019-04-29T23:54:08.608Z,99.79
2019-04-29T23:57:08.637Z,99.54
